
<gpx xmlns="http://www.topografix.com/GPX/1/1" xmlns:gpxx="http://www.garmin.com/xmlschemas/GpxExtensions/v3" xmlns:xsi="http://www.w3.org/2001/XMLSchema-instance" version="1.1" creator="Adze - https://getadze.com/" xsi:schemaLocation="http://www.topografix.com/GPX/1/1 http://www.topografix.com/GPX/1/1/gpx.xsd http://www.garmin.com/xmlschemas/GpxExtensions/v3 http://www.garmin.com/xmlschemas/GpxExtensionsv3.xsd">
    <metadata>
        <name>Untitled Document</name>
        <link href="http://www.garmin.com"></link>
        <time>2018-03-08T10:51:37.710Z</time>
    </metadata>
    <wpt lon="101.188145" lat="14.332587">
        <ele>65.000000</ele>
        <name>Wangree Resort</name>
        <cmt>29-JUL-11 15:03:35</cmt>
        <desc>29-JUL-11 15:03:35</desc>
        <sym>Lodging</sym>
        <extensions>
            <gpxx:WaypointExtension xmlns:gpxx="http://www.garmin.com/xmlschemas/GpxExtensions/v3">
                <gpxx:DisplayMode>SymbolOnly</gpxx:DisplayMode>
            </gpxx:WaypointExtension>
        </extensions>
    </wpt>
    <wpt lon="101.222417" lat="14.276694">
        <ele>17.000000</ele>
        <time>2011-07-31T09:59:11Z</time>
        <name>July 2011 - Sunday water</name>
        <cmt>31-JUL-11 11:41:34</cmt>
        <desc>31-JUL-11 11:41:34</desc>
        <sym>Drinking Water</sym>
        <extensions>
            <gpxx:WaypointExtension xmlns:gpxx="http://www.garmin.com/xmlschemas/GpxExtensions/v3">
                <gpxx:DisplayMode>SymbolOnly</gpxx:DisplayMode>
            </gpxx:WaypointExtension>
        </extensions>
    </wpt>
    <trk>
        <name>July 2011 - Sunday</name>
        <extensions>
            <gpxx:TrackExtension xmlns:gpxx="http://www.garmin.com/xmlschemas/GpxExtensions/v3">
                <gpxx:DisplayColor>Green</gpxx:DisplayColor>
            </gpxx:TrackExtension>
        </extensions>
        <trkseg>
            <trkpt lon="101.188971" lat="14.332805">
                <ele>62.142334</ele>
                <time>2011-07-31T03:05:35Z</time>
            </trkpt>
            <trkpt lon="101.190018" lat="14.333234">
                <ele>59.258423</ele>
                <time>2011-07-31T03:06:10Z</time>
            </trkpt>
            <trkpt lon="101.190967" lat="14.334168">
                <ele>56.855103</ele>
                <time>2011-07-31T03:06:40Z</time>
            </trkpt>
            <trkpt lon="101.191753" lat="14.334729">
                <ele>57.816528</ele>
                <time>2011-07-31T03:07:00Z</time>
            </trkpt>
            <trkpt lon="101.192305" lat="14.335153">
                <ele>56.374512</ele>
                <time>2011-07-31T03:07:13Z</time>
            </trkpt>
            <trkpt lon="101.192526" lat="14.335277">
                <ele>55.893799</ele>
                <time>2011-07-31T03:07:18Z</time>
            </trkpt>
            <trkpt lon="101.192723" lat="14.335196">
                <ele>56.374512</ele>
                <time>2011-07-31T03:07:23Z</time>
            </trkpt>
            <trkpt lon="101.193272" lat="14.334678">
                <ele>55.413086</ele>
                <time>2011-07-31T03:07:40Z</time>
            </trkpt>
            <trkpt lon="101.193708" lat="14.335007">
                <ele>59.258423</ele>
                <time>2011-07-31T03:08:24Z</time>
            </trkpt>
            <trkpt lon="101.194284" lat="14.335960">
                <ele>56.374512</ele>
                <time>2011-07-31T03:09:27Z</time>
            </trkpt>
            <trkpt lon="101.194947" lat="14.336386">
                <ele>59.739136</ele>
                <time>2011-07-31T03:10:12Z</time>
            </trkpt>
            <trkpt lon="101.194797" lat="14.336776">
                <ele>58.777710</ele>
                <time>2011-07-31T03:11:01Z</time>
            </trkpt>
            <trkpt lon="101.194881" lat="14.337150">
                <ele>63.584351</ele>
                <time>2011-07-31T03:13:30Z</time>
            </trkpt>
            <trkpt lon="101.194874" lat="14.336606">
                <ele>57.816528</ele>
                <time>2011-07-31T03:14:11Z</time>
            </trkpt>
            <trkpt lon="101.195322" lat="14.336441">
                <ele>57.816528</ele>
                <time>2011-07-31T03:14:41Z</time>
            </trkpt>
            <trkpt lon="101.195566" lat="14.336070">
                <ele>56.374512</ele>
                <time>2011-07-31T03:15:28Z</time>
            </trkpt>
            <trkpt lon="101.196132" lat="14.335682">
                <ele>55.413086</ele>
                <time>2011-07-31T03:16:17Z</time>
            </trkpt>
            <trkpt lon="101.196519" lat="14.334997">
                <ele>54.932373</ele>
                <time>2011-07-31T03:16:49Z</time>
            </trkpt>
            <trkpt lon="101.197073" lat="14.334540">
                <ele>57.335815</ele>
                <time>2011-07-31T03:17:24Z</time>
            </trkpt>
            <trkpt lon="101.197129" lat="14.334114">
                <ele>59.258423</ele>
                <time>2011-07-31T03:17:44Z</time>
            </trkpt>
            <trkpt lon="101.198017" lat="14.334005">
                <ele>62.142334</ele>
                <time>2011-07-31T03:18:14Z</time>
            </trkpt>
            <trkpt lon="101.199340" lat="14.334139">
                <ele>71.755493</ele>
                <time>2011-07-31T03:19:03Z</time>
            </trkpt>
            <trkpt lon="101.199539" lat="14.334363">
                <ele>54.451782</ele>
                <time>2011-07-31T03:19:06Z</time>
            </trkpt>
            <trkpt lon="101.200747" lat="14.334220">
                <ele>59.258423</ele>
                <time>2011-07-31T03:19:47Z</time>
            </trkpt>
            <trkpt lon="101.202385" lat="14.334632">
                <ele>90.981934</ele>
                <time>2011-07-31T03:21:36Z</time>
            </trkpt>
            <trkpt lon="101.202646" lat="14.334369">
                <ele>90.020630</ele>
                <time>2011-07-31T03:21:51Z</time>
            </trkpt>
            <trkpt lon="101.202816" lat="14.333709">
                <ele>88.578735</ele>
                <time>2011-07-31T03:22:11Z</time>
            </trkpt>
            <trkpt lon="101.203427" lat="14.331167">
                <ele>83.771973</ele>
                <time>2011-07-31T03:23:15Z</time>
            </trkpt>
            <trkpt lon="101.203313" lat="14.330847">
                <ele>84.252685</ele>
                <time>2011-07-31T03:23:26Z</time>
            </trkpt>
            <trkpt lon="101.202828" lat="14.330368">
                <ele>82.810791</ele>
                <time>2011-07-31T03:23:43Z</time>
            </trkpt>
            <trkpt lon="101.202259" lat="14.329962">
                <ele>79.926636</ele>
                <time>2011-07-31T03:24:01Z</time>
            </trkpt>
            <trkpt lon="101.201879" lat="14.329948">
                <ele>74.158813</ele>
                <time>2011-07-31T03:24:17Z</time>
            </trkpt>
            <trkpt lon="101.202010" lat="14.329210">
                <ele>65.026367</ele>
                <time>2011-07-31T03:24:45Z</time>
            </trkpt>
            <trkpt lon="101.201859" lat="14.326852">
                <ele>55.413086</ele>
                <time>2011-07-31T03:27:16Z</time>
            </trkpt>
            <trkpt lon="101.201857" lat="14.326727">
                <ele>53.490479</ele>
                <time>2011-07-31T03:27:32Z</time>
            </trkpt>
            <trkpt lon="101.201672" lat="14.326547">
                <ele>59.258423</ele>
                <time>2011-07-31T03:28:06Z</time>
            </trkpt>
            <trkpt lon="101.201414" lat="14.326378">
                <ele>59.739136</ele>
                <time>2011-07-31T03:28:35Z</time>
            </trkpt>
            <trkpt lon="101.201219" lat="14.326277">
                <ele>58.777710</ele>
                <time>2011-07-31T03:28:49Z</time>
            </trkpt>
            <trkpt lon="101.201135" lat="14.326099">
                <ele>57.816528</ele>
                <time>2011-07-31T03:29:13Z</time>
            </trkpt>
            <trkpt lon="101.202647" lat="14.324255">
                <ele>52.048584</ele>
                <time>2011-07-31T03:30:09Z</time>
            </trkpt>
            <trkpt lon="101.204408" lat="14.321819">
                <ele>47.241821</ele>
                <time>2011-07-31T03:31:20Z</time>
            </trkpt>
            <trkpt lon="101.204793" lat="14.322050">
                <ele>49.164551</ele>
                <time>2011-07-31T03:32:27Z</time>
            </trkpt>
            <trkpt lon="101.205182" lat="14.321745">
                <ele>54.451782</ele>
                <time>2011-07-31T03:33:41Z</time>
            </trkpt>
            <trkpt lon="101.205484" lat="14.321574">
                <ele>55.413086</ele>
                <time>2011-07-31T03:34:01Z</time>
            </trkpt>
            <trkpt lon="101.206341" lat="14.321343">
                <ele>52.529175</ele>
                <time>2011-07-31T03:34:55Z</time>
            </trkpt>
            <trkpt lon="101.206796" lat="14.320935">
                <ele>74.158813</ele>
                <time>2011-07-31T03:36:23Z</time>
            </trkpt>
            <trkpt lon="101.206917" lat="14.320854">
                <ele>75.600830</ele>
                <time>2011-07-31T03:36:43Z</time>
            </trkpt>
            <trkpt lon="101.209496" lat="14.319171">
                <ele>56.374512</ele>
                <time>2011-07-31T03:40:51Z</time>
            </trkpt>
            <trkpt lon="101.210455" lat="14.319026">
                <ele>62.622925</ele>
                <time>2011-07-31T03:42:10Z</time>
            </trkpt>
            <trkpt lon="101.210736" lat="14.318853">
                <ele>61.661743</ele>
                <time>2011-07-31T03:42:28Z</time>
            </trkpt>
            <trkpt lon="101.211159" lat="14.318585">
                <ele>52.529175</ele>
                <time>2011-07-31T03:42:53Z</time>
            </trkpt>
            <trkpt lon="101.211672" lat="14.319301">
                <ele>50.606567</ele>
                <time>2011-07-31T03:43:23Z</time>
            </trkpt>
            <trkpt lon="101.211548" lat="14.319796">
                <ele>54.932373</ele>
                <time>2011-07-31T03:43:36Z</time>
            </trkpt>
            <trkpt lon="101.211575" lat="14.320431">
                <ele>56.855103</ele>
                <time>2011-07-31T03:43:53Z</time>
            </trkpt>
            <trkpt lon="101.211764" lat="14.321830">
                <ele>55.893799</ele>
                <time>2011-07-31T03:44:33Z</time>
            </trkpt>
            <trkpt lon="101.212014" lat="14.322002">
                <ele>53.009766</ele>
                <time>2011-07-31T03:44:43Z</time>
            </trkpt>
            <trkpt lon="101.213756" lat="14.321849">
                <ele>49.164551</ele>
                <time>2011-07-31T03:45:35Z</time>
            </trkpt>
            <trkpt lon="101.215567" lat="14.320828">
                <ele>47.722534</ele>
                <time>2011-07-31T03:46:31Z</time>
            </trkpt>
            <trkpt lon="101.216187" lat="14.320937">
                <ele>49.645264</ele>
                <time>2011-07-31T03:46:49Z</time>
            </trkpt>
            <trkpt lon="101.217523" lat="14.321001">
                <ele>45.319214</ele>
                <time>2011-07-31T03:47:26Z</time>
            </trkpt>
            <trkpt lon="101.218557" lat="14.321242">
                <ele>46.761231</ele>
                <time>2011-07-31T03:48:04Z</time>
            </trkpt>
            <trkpt lon="101.218602" lat="14.321327">
                <ele>51.087158</ele>
                <time>2011-07-31T03:48:27Z</time>
            </trkpt>
            <trkpt lon="101.218775" lat="14.321989">
                <ele>51.567871</ele>
                <time>2011-07-31T03:49:26Z</time>
            </trkpt>
            <trkpt lon="101.218771" lat="14.322254">
                <ele>51.567871</ele>
                <time>2011-07-31T03:49:46Z</time>
            </trkpt>
            <trkpt lon="101.219232" lat="14.323073">
                <ele>47.722534</ele>
                <time>2011-07-31T03:50:22Z</time>
            </trkpt>
            <trkpt lon="101.219266" lat="14.323483">
                <ele>53.009766</ele>
                <time>2011-07-31T03:51:29Z</time>
            </trkpt>
            <trkpt lon="101.219898" lat="14.324539">
                <ele>56.855103</ele>
                <time>2011-07-31T03:54:18Z</time>
            </trkpt>
            <trkpt lon="101.220531" lat="14.324771">
                <ele>53.009766</ele>
                <time>2011-07-31T03:56:18Z</time>
            </trkpt>
            <trkpt lon="101.220629" lat="14.324548">
                <ele>52.048584</ele>
                <time>2011-07-31T03:56:33Z</time>
            </trkpt>
            <trkpt lon="101.220493" lat="14.322801">
                <ele>50.125977</ele>
                <time>2011-07-31T03:57:52Z</time>
            </trkpt>
            <trkpt lon="101.220530" lat="14.322512">
                <ele>49.645264</ele>
                <time>2011-07-31T03:58:06Z</time>
            </trkpt>
            <trkpt lon="101.220251" lat="14.321397">
                <ele>50.125977</ele>
                <time>2011-07-31T03:58:52Z</time>
            </trkpt>
            <trkpt lon="101.220942" lat="14.320948">
                <ele>46.280640</ele>
                <time>2011-07-31T03:59:21Z</time>
            </trkpt>
            <trkpt lon="101.221077" lat="14.319055">
                <ele>50.606567</ele>
                <time>2011-07-31T04:00:19Z</time>
            </trkpt>
            <trkpt lon="101.221031" lat="14.317481">
                <ele>48.203369</ele>
                <time>2011-07-31T04:00:59Z</time>
            </trkpt>
            <trkpt lon="101.221331" lat="14.316245">
                <ele>48.203369</ele>
                <time>2011-07-31T04:01:39Z</time>
            </trkpt>
            <trkpt lon="101.220949" lat="14.315079">
                <ele>48.683960</ele>
                <time>2011-07-31T04:02:15Z</time>
            </trkpt>
            <trkpt lon="101.221479" lat="14.313872">
                <ele>44.358032</ele>
                <time>2011-07-31T04:02:48Z</time>
            </trkpt>
            <trkpt lon="101.222003" lat="14.313459">
                <ele>44.358032</ele>
                <time>2011-07-31T04:03:12Z</time>
            </trkpt>
            <trkpt lon="101.222471" lat="14.312615">
                <ele>42.916016</ele>
                <time>2011-07-31T04:03:44Z</time>
            </trkpt>
            <trkpt lon="101.222831" lat="14.311022">
                <ele>47.722534</ele>
                <time>2011-07-31T04:04:33Z</time>
            </trkpt>
            <trkpt lon="101.223059" lat="14.310897">
                <ele>52.529175</ele>
                <time>2011-07-31T04:04:46Z</time>
            </trkpt>
            <trkpt lon="101.223074" lat="14.310430">
                <ele>53.009766</ele>
                <time>2011-07-31T04:05:03Z</time>
            </trkpt>
            <trkpt lon="101.223666" lat="14.309639">
                <ele>53.009766</ele>
                <time>2011-07-31T04:05:31Z</time>
            </trkpt>
            <trkpt lon="101.223716" lat="14.309476">
                <ele>51.567871</ele>
                <time>2011-07-31T04:05:36Z</time>
            </trkpt>
            <trkpt lon="101.223476" lat="14.309236">
                <ele>50.125977</ele>
                <time>2011-07-31T04:05:44Z</time>
            </trkpt>
            <trkpt lon="101.223167" lat="14.309132">
                <ele>45.319214</ele>
                <time>2011-07-31T04:05:48Z</time>
            </trkpt>
            <trkpt lon="101.215160" lat="14.308936">
                <ele>27.534912</ele>
                <time>2011-07-31T04:08:24Z</time>
            </trkpt>
            <trkpt lon="101.215185" lat="14.308794">
                <ele>26.573608</ele>
                <time>2011-07-31T04:08:32Z</time>
            </trkpt>
            <trkpt lon="101.215931" lat="14.308375">
                <ele>26.092896</ele>
                <time>2011-07-31T04:09:08Z</time>
            </trkpt>
            <trkpt lon="101.216023" lat="14.308141">
                <ele>29.938110</ele>
                <time>2011-07-31T04:09:23Z</time>
            </trkpt>
            <trkpt lon="101.216142" lat="14.307865">
                <ele>28.496216</ele>
                <time>2011-07-31T04:09:44Z</time>
            </trkpt>
            <trkpt lon="101.217092" lat="14.307760">
                <ele>28.496216</ele>
                <time>2011-07-31T04:10:16Z</time>
            </trkpt>
            <trkpt lon="101.217293" lat="14.306760">
                <ele>24.170288</ele>
                <time>2011-07-31T04:10:58Z</time>
            </trkpt>
            <trkpt lon="101.218268" lat="14.306962">
                <ele>22.247559</ele>
                <time>2011-07-31T04:11:28Z</time>
            </trkpt>
            <trkpt lon="101.218843" lat="14.304879">
                <ele>21.286377</ele>
                <time>2011-07-31T04:12:19Z</time>
            </trkpt>
            <trkpt lon="101.219423" lat="14.304002">
                <ele>22.728272</ele>
                <time>2011-07-31T04:13:04Z</time>
            </trkpt>
            <trkpt lon="101.219183" lat="14.302855">
                <ele>17.441162</ele>
                <time>2011-07-31T04:13:55Z</time>
            </trkpt>
            <trkpt lon="101.219294" lat="14.302077">
                <ele>19.363770</ele>
                <time>2011-07-31T04:14:30Z</time>
            </trkpt>
            <trkpt lon="101.219341" lat="14.301999">
                <ele>21.766968</ele>
                <time>2011-07-31T04:14:42Z</time>
            </trkpt>
            <trkpt lon="101.219729" lat="14.301864">
                <ele>21.286377</ele>
                <time>2011-07-31T04:15:37Z</time>
            </trkpt>
            <trkpt lon="101.220267" lat="14.301858">
                <ele>20.805664</ele>
                <time>2011-07-31T04:15:55Z</time>
            </trkpt>
            <trkpt lon="101.221527" lat="14.301227">
                <ele>21.766968</ele>
                <time>2011-07-31T04:16:38Z</time>
            </trkpt>
            <trkpt lon="101.220623" lat="14.299998">
                <ele>19.844360</ele>
                <time>2011-07-31T04:17:29Z</time>
            </trkpt>
            <trkpt lon="101.222805" lat="14.299968">
                <ele>24.651001</ele>
                <time>2011-07-31T04:18:26Z</time>
            </trkpt>
            <trkpt lon="101.223169" lat="14.300351">
                <ele>24.170288</ele>
                <time>2011-07-31T04:18:39Z</time>
            </trkpt>
            <trkpt lon="101.223484" lat="14.300683">
                <ele>19.844360</ele>
                <time>2011-07-31T04:18:53Z</time>
            </trkpt>
            <trkpt lon="101.224718" lat="14.301120">
                <ele>21.766968</ele>
                <time>2011-07-31T04:19:32Z</time>
            </trkpt>
            <trkpt lon="101.225357" lat="14.301367">
                <ele>19.844360</ele>
                <time>2011-07-31T04:19:51Z</time>
            </trkpt>
            <trkpt lon="101.225735" lat="14.300547">
                <ele>18.402344</ele>
                <time>2011-07-31T04:20:18Z</time>
            </trkpt>
            <trkpt lon="101.225542" lat="14.298344">
                <ele>17.921753</ele>
                <time>2011-07-31T04:21:15Z</time>
            </trkpt>
            <trkpt lon="101.225702" lat="14.298338">
                <ele>19.363770</ele>
                <time>2011-07-31T04:21:24Z</time>
            </trkpt>
            <trkpt lon="101.225689" lat="14.297930">
                <ele>21.286377</ele>
                <time>2011-07-31T04:21:44Z</time>
            </trkpt>
            <trkpt lon="101.225568" lat="14.297478">
                <ele>19.844360</ele>
                <time>2011-07-31T04:22:41Z</time>
            </trkpt>
            <trkpt lon="101.226081" lat="14.297254">
                <ele>22.728272</ele>
                <time>2011-07-31T04:23:25Z</time>
            </trkpt>
            <trkpt lon="101.226259" lat="14.297302">
                <ele>25.612305</ele>
                <time>2011-07-31T04:23:38Z</time>
            </trkpt>
            <trkpt lon="101.226590" lat="14.297242">
                <ele>19.844360</ele>
                <time>2011-07-31T04:24:56Z</time>
            </trkpt>
            <trkpt lon="101.226677" lat="14.296544">
                <ele>19.363770</ele>
                <time>2011-07-31T04:25:35Z</time>
            </trkpt>
            <trkpt lon="101.227983" lat="14.296719">
                <ele>21.766968</ele>
                <time>2011-07-31T04:26:30Z</time>
            </trkpt>
            <trkpt lon="101.227932" lat="14.295726">
                <ele>19.363770</ele>
                <time>2011-07-31T04:26:55Z</time>
            </trkpt>
            <trkpt lon="101.227647" lat="14.295195">
                <ele>17.921753</ele>
                <time>2011-07-31T04:27:07Z</time>
            </trkpt>
            <trkpt lon="101.227525" lat="14.294479">
                <ele>18.402344</ele>
                <time>2011-07-31T04:27:22Z</time>
            </trkpt>
            <trkpt lon="101.227766" lat="14.293798">
                <ele>23.208984</ele>
                <time>2011-07-31T04:28:33Z</time>
            </trkpt>
            <trkpt lon="101.228162" lat="14.292851">
                <ele>19.844360</ele>
                <time>2011-07-31T04:28:57Z</time>
            </trkpt>
            <trkpt lon="101.228545" lat="14.290233">
                <ele>17.441162</ele>
                <time>2011-07-31T04:29:56Z</time>
            </trkpt>
            <trkpt lon="101.230784" lat="14.286065">
                <ele>16.960449</ele>
                <time>2011-07-31T04:31:21Z</time>
            </trkpt>
            <trkpt lon="101.233200" lat="14.282018">
                <ele>17.921753</ele>
                <time>2011-07-31T04:32:47Z</time>
            </trkpt>
            <trkpt lon="101.233112" lat="14.281750">
                <ele>16.960449</ele>
                <time>2011-07-31T04:32:55Z</time>
            </trkpt>
            <trkpt lon="101.232349" lat="14.281162">
                <ele>16.960449</ele>
                <time>2011-07-31T04:33:16Z</time>
            </trkpt>
            <trkpt lon="101.230520" lat="14.278465">
                <ele>15.518433</ele>
                <time>2011-07-31T04:34:15Z</time>
            </trkpt>
            <trkpt lon="101.230339" lat="14.278402">
                <ele>15.037720</ele>
                <time>2011-07-31T04:34:20Z</time>
            </trkpt>
            <trkpt lon="101.229019" lat="14.278752">
                <ele>15.999023</ele>
                <time>2011-07-31T04:34:49Z</time>
            </trkpt>
            <trkpt lon="101.227407" lat="14.278476">
                <ele>16.960449</ele>
                <time>2011-07-31T04:35:27Z</time>
            </trkpt>
            <trkpt lon="101.226186" lat="14.277881">
                <ele>17.441162</ele>
                <time>2011-07-31T04:35:58Z</time>
            </trkpt>
            <trkpt lon="101.226042" lat="14.277829">
                <ele>16.479736</ele>
                <time>2011-07-31T04:36:02Z</time>
            </trkpt>
            <trkpt lon="101.225499" lat="14.278616">
                <ele>15.518433</ele>
                <time>2011-07-31T04:36:31Z</time>
            </trkpt>
            <trkpt lon="101.225687" lat="14.279034">
                <ele>15.037720</ele>
                <time>2011-07-31T04:36:46Z</time>
            </trkpt>
            <trkpt lon="101.225544" lat="14.279833">
                <ele>15.518433</ele>
                <time>2011-07-31T04:37:13Z</time>
            </trkpt>
            <trkpt lon="101.225254" lat="14.280346">
                <ele>15.518433</ele>
                <time>2011-07-31T04:37:30Z</time>
            </trkpt>
            <trkpt lon="101.224782" lat="14.280978">
                <ele>15.037720</ele>
                <time>2011-07-31T04:38:00Z</time>
            </trkpt>
            <trkpt lon="101.224813" lat="14.280498">
                <ele>15.518433</ele>
                <time>2011-07-31T04:38:40Z</time>
            </trkpt>
            <trkpt lon="101.224693" lat="14.280419">
                <ele>15.037720</ele>
                <time>2011-07-31T04:38:46Z</time>
            </trkpt>
            <trkpt lon="101.222056" lat="14.280307">
                <ele>17.921753</ele>
                <time>2011-07-31T04:40:21Z</time>
            </trkpt>
            <trkpt lon="101.222388" lat="14.278302">
                <ele>15.037720</ele>
                <time>2011-07-31T04:41:16Z</time>
            </trkpt>
            <trkpt lon="101.222243" lat="14.278499">
                <ele>17.441162</ele>
                <time>2011-07-31T04:41:35Z</time>
            </trkpt>
            <trkpt lon="101.221992" lat="14.278479">
                <ele>17.441162</ele>
                <time>2011-07-31T04:41:46Z</time>
            </trkpt>
            <trkpt lon="101.221691" lat="14.278424">
                <ele>16.960449</ele>
                <time>2011-07-31T04:41:54Z</time>
            </trkpt>
            <trkpt lon="101.221564" lat="14.278560">
                <ele>17.441162</ele>
                <time>2011-07-31T04:42:11Z</time>
            </trkpt>
            <trkpt lon="101.221794" lat="14.278437">
                <ele>17.441162</ele>
                <time>2011-07-31T04:42:22Z</time>
            </trkpt>
            <trkpt lon="101.222290" lat="14.278493">
                <ele>18.402344</ele>
                <time>2011-07-31T04:42:39Z</time>
            </trkpt>
            <trkpt lon="101.222318" lat="14.278233">
                <ele>18.402344</ele>
                <time>2011-07-31T04:42:50Z</time>
            </trkpt>
            <trkpt lon="101.221497" lat="14.278165">
                <ele>16.479736</ele>
                <time>2011-07-31T04:43:18Z</time>
            </trkpt>
            <trkpt lon="101.221359" lat="14.278469">
                <ele>15.518433</ele>
                <time>2011-07-31T04:43:29Z</time>
            </trkpt>
            <trkpt lon="101.220332" lat="14.278713">
                <ele>14.076416</ele>
                <time>2011-07-31T04:44:01Z</time>
            </trkpt>
            <trkpt lon="101.220392" lat="14.279269">
                <ele>16.960449</ele>
                <time>2011-07-31T04:44:24Z</time>
            </trkpt>
            <trkpt lon="101.219395" lat="14.279674">
                <ele>17.441162</ele>
                <time>2011-07-31T04:44:56Z</time>
            </trkpt>
            <trkpt lon="101.219164" lat="14.280242">
                <ele>18.883057</ele>
                <time>2011-07-31T04:45:23Z</time>
            </trkpt>
            <trkpt lon="101.218433" lat="14.280633">
                <ele>23.208984</ele>
                <time>2011-07-31T04:45:51Z</time>
            </trkpt>
            <trkpt lon="101.217830" lat="14.280793">
                <ele>20.805664</ele>
                <time>2011-07-31T04:46:07Z</time>
            </trkpt>
            <trkpt lon="101.217490" lat="14.281229">
                <ele>18.883057</ele>
                <time>2011-07-31T04:46:22Z</time>
            </trkpt>
            <trkpt lon="101.217119" lat="14.282120">
                <ele>18.883057</ele>
                <time>2011-07-31T04:46:49Z</time>
            </trkpt>
            <trkpt lon="101.217347" lat="14.282340">
                <ele>18.883057</ele>
                <time>2011-07-31T04:46:59Z</time>
            </trkpt>
            <trkpt lon="101.217277" lat="14.282616">
                <ele>18.402344</ele>
                <time>2011-07-31T04:47:09Z</time>
            </trkpt>
            <trkpt lon="101.216922" lat="14.282544">
                <ele>18.883057</ele>
                <time>2011-07-31T04:47:20Z</time>
            </trkpt>
            <trkpt lon="101.216496" lat="14.282698">
                <ele>19.363770</ele>
                <time>2011-07-31T04:47:34Z</time>
            </trkpt>
            <trkpt lon="101.216693" lat="14.283307">
                <ele>18.883057</ele>
                <time>2011-07-31T04:47:55Z</time>
            </trkpt>
            <trkpt lon="101.216341" lat="14.283674">
                <ele>19.363770</ele>
                <time>2011-07-31T04:48:09Z</time>
            </trkpt>
            <trkpt lon="101.216094" lat="14.284233">
                <ele>18.883057</ele>
                <time>2011-07-31T04:48:25Z</time>
            </trkpt>
            <trkpt lon="101.215858" lat="14.284576">
                <ele>16.960449</ele>
                <time>2011-07-31T04:48:38Z</time>
            </trkpt>
            <trkpt lon="101.215035" lat="14.285092">
                <ele>16.960449</ele>
                <time>2011-07-31T04:49:08Z</time>
            </trkpt>
            <trkpt lon="101.214684" lat="14.285095">
                <ele>15.999023</ele>
                <time>2011-07-31T04:49:20Z</time>
            </trkpt>
            <trkpt lon="101.214242" lat="14.285564">
                <ele>15.999023</ele>
                <time>2011-07-31T04:49:48Z</time>
            </trkpt>
            <trkpt lon="101.213903" lat="14.286327">
                <ele>18.883057</ele>
                <time>2011-07-31T04:50:31Z</time>
            </trkpt>
            <trkpt lon="101.213825" lat="14.286597">
                <ele>18.402344</ele>
                <time>2011-07-31T04:50:45Z</time>
            </trkpt>
            <trkpt lon="101.213400" lat="14.286774">
                <ele>18.883057</ele>
                <time>2011-07-31T04:51:08Z</time>
            </trkpt>
            <trkpt lon="101.213189" lat="14.286724">
                <ele>20.324951</ele>
                <time>2011-07-31T04:51:23Z</time>
            </trkpt>
            <trkpt lon="101.212969" lat="14.286602">
                <ele>19.363770</ele>
                <time>2011-07-31T04:51:38Z</time>
            </trkpt>
            <trkpt lon="101.212467" lat="14.286648">
                <ele>19.363770</ele>
                <time>2011-07-31T04:52:23Z</time>
            </trkpt>
            <trkpt lon="101.211433" lat="14.286948">
                <ele>17.441162</ele>
                <time>2011-07-31T04:53:52Z</time>
            </trkpt>
            <trkpt lon="101.211114" lat="14.287129">
                <ele>18.402344</ele>
                <time>2011-07-31T04:54:23Z</time>
            </trkpt>
            <trkpt lon="101.211157" lat="14.287270">
                <ele>18.402344</ele>
                <time>2011-07-31T04:54:31Z</time>
            </trkpt>
            <trkpt lon="101.210871" lat="14.287269">
                <ele>18.883057</ele>
                <time>2011-07-31T04:54:42Z</time>
            </trkpt>
            <trkpt lon="101.210577" lat="14.287406">
                <ele>18.402344</ele>
                <time>2011-07-31T04:54:53Z</time>
            </trkpt>
            <trkpt lon="101.210611" lat="14.287894">
                <ele>16.960449</ele>
                <time>2011-07-31T04:55:08Z</time>
            </trkpt>
            <trkpt lon="101.211273" lat="14.287639">
                <ele>17.921753</ele>
                <time>2011-07-31T04:55:31Z</time>
            </trkpt>
            <trkpt lon="101.211491" lat="14.288047">
                <ele>18.883057</ele>
                <time>2011-07-31T04:55:46Z</time>
            </trkpt>
            <trkpt lon="101.211557" lat="14.288507">
                <ele>18.883057</ele>
                <time>2011-07-31T04:56:00Z</time>
            </trkpt>
            <trkpt lon="101.211065" lat="14.288895">
                <ele>18.883057</ele>
                <time>2011-07-31T04:56:20Z</time>
            </trkpt>
            <trkpt lon="101.210581" lat="14.289468">
                <ele>18.883057</ele>
                <time>2011-07-31T04:56:40Z</time>
            </trkpt>
            <trkpt lon="101.211336" lat="14.289698">
                <ele>18.883057</ele>
                <time>2011-07-31T04:57:04Z</time>
            </trkpt>
            <trkpt lon="101.211602" lat="14.290208">
                <ele>17.441162</ele>
                <time>2011-07-31T04:57:21Z</time>
            </trkpt>
            <trkpt lon="101.211296" lat="14.290730">
                <ele>17.921753</ele>
                <time>2011-07-31T04:57:36Z</time>
            </trkpt>
            <trkpt lon="101.211398" lat="14.291575">
                <ele>19.844360</ele>
                <time>2011-07-31T04:58:00Z</time>
            </trkpt>
            <trkpt lon="101.211298" lat="14.292013">
                <ele>21.766968</ele>
                <time>2011-07-31T04:58:13Z</time>
            </trkpt>
            <trkpt lon="101.210905" lat="14.292509">
                <ele>22.247559</ele>
                <time>2011-07-31T04:58:30Z</time>
            </trkpt>
            <trkpt lon="101.210768" lat="14.292667">
                <ele>21.766968</ele>
                <time>2011-07-31T04:58:36Z</time>
            </trkpt>
            <trkpt lon="101.210533" lat="14.292526">
                <ele>21.766968</ele>
                <time>2011-07-31T04:58:46Z</time>
            </trkpt>
            <trkpt lon="101.210146" lat="14.292693">
                <ele>21.766968</ele>
                <time>2011-07-31T04:59:01Z</time>
            </trkpt>
            <trkpt lon="101.209792" lat="14.292611">
                <ele>20.324951</ele>
                <time>2011-07-31T04:59:12Z</time>
            </trkpt>
            <trkpt lon="101.209387" lat="14.292875">
                <ele>19.844360</ele>
                <time>2011-07-31T04:59:28Z</time>
            </trkpt>
            <trkpt lon="101.209593" lat="14.294290">
                <ele>25.131714</ele>
                <time>2011-07-31T05:00:18Z</time>
            </trkpt>
            <trkpt lon="101.209358" lat="14.294733">
                <ele>24.170288</ele>
                <time>2011-07-31T05:00:31Z</time>
            </trkpt>
            <trkpt lon="101.209035" lat="14.295004">
                <ele>22.728272</ele>
                <time>2011-07-31T05:00:44Z</time>
            </trkpt>
            <trkpt lon="101.208706" lat="14.295072">
                <ele>22.728272</ele>
                <time>2011-07-31T05:00:57Z</time>
            </trkpt>
            <trkpt lon="101.208368" lat="14.294846">
                <ele>24.651001</ele>
                <time>2011-07-31T05:01:14Z</time>
            </trkpt>
            <trkpt lon="101.208167" lat="14.294808">
                <ele>23.208984</ele>
                <time>2011-07-31T05:01:24Z</time>
            </trkpt>
            <trkpt lon="101.207945" lat="14.295058">
                <ele>23.208984</ele>
                <time>2011-07-31T05:01:35Z</time>
            </trkpt>
            <trkpt lon="101.208340" lat="14.296363">
                <ele>22.247559</ele>
                <time>2011-07-31T05:02:21Z</time>
            </trkpt>
            <trkpt lon="101.208217" lat="14.296550">
                <ele>22.247559</ele>
                <time>2011-07-31T05:02:30Z</time>
            </trkpt>
            <trkpt lon="101.207561" lat="14.296449">
                <ele>22.247559</ele>
                <time>2011-07-31T05:02:50Z</time>
            </trkpt>
            <trkpt lon="101.207319" lat="14.296683">
                <ele>23.689575</ele>
                <time>2011-07-31T05:03:02Z</time>
            </trkpt>
            <trkpt lon="101.207372" lat="14.297006">
                <ele>23.689575</ele>
                <time>2011-07-31T05:03:15Z</time>
            </trkpt>
            <trkpt lon="101.207883" lat="14.297398">
                <ele>22.728272</ele>
                <time>2011-07-31T05:03:31Z</time>
            </trkpt>
            <trkpt lon="101.208576" lat="14.298759">
                <ele>20.324951</ele>
                <time>2011-07-31T05:04:03Z</time>
            </trkpt>
            <trkpt lon="101.208492" lat="14.298970">
                <ele>20.324951</ele>
                <time>2011-07-31T05:04:09Z</time>
            </trkpt>
            <trkpt lon="101.207245" lat="14.300216">
                <ele>24.170288</ele>
                <time>2011-07-31T05:04:58Z</time>
            </trkpt>
            <trkpt lon="101.206797" lat="14.300590">
                <ele>24.170288</ele>
                <time>2011-07-31T05:05:15Z</time>
            </trkpt>
            <trkpt lon="101.205706" lat="14.302344">
                <ele>25.612305</ele>
                <time>2011-07-31T05:06:11Z</time>
            </trkpt>
            <trkpt lon="101.205547" lat="14.303081">
                <ele>25.612305</ele>
                <time>2011-07-31T05:06:30Z</time>
            </trkpt>
            <trkpt lon="101.205522" lat="14.303569">
                <ele>27.054321</ele>
                <time>2011-07-31T05:06:46Z</time>
            </trkpt>
            <trkpt lon="101.206395" lat="14.304719">
                <ele>26.573608</ele>
                <time>2011-07-31T05:07:23Z</time>
            </trkpt>
            <trkpt lon="101.207707" lat="14.305101">
                <ele>26.573608</ele>
                <time>2011-07-31T05:07:57Z</time>
            </trkpt>
            <trkpt lon="101.208344" lat="14.305027">
                <ele>27.534912</ele>
                <time>2011-07-31T05:08:15Z</time>
            </trkpt>
            <trkpt lon="101.208436" lat="14.305103">
                <ele>27.534912</ele>
                <time>2011-07-31T05:08:19Z</time>
            </trkpt>
            <trkpt lon="101.208628" lat="14.305681">
                <ele>27.534912</ele>
                <time>2011-07-31T05:08:36Z</time>
            </trkpt>
            <trkpt lon="101.208635" lat="14.306482">
                <ele>28.496216</ele>
                <time>2011-07-31T05:08:57Z</time>
            </trkpt>
            <trkpt lon="101.208604" lat="14.306657">
                <ele>28.496216</ele>
                <time>2011-07-31T05:09:02Z</time>
            </trkpt>
            <trkpt lon="101.206052" lat="14.306498">
                <ele>28.015503</ele>
                <time>2011-07-31T05:11:40Z</time>
            </trkpt>
            <trkpt lon="101.205894" lat="14.306418">
                <ele>26.092896</ele>
                <time>2011-07-31T05:11:44Z</time>
            </trkpt>
            <trkpt lon="101.205015" lat="14.305139">
                <ele>26.092896</ele>
                <time>2011-07-31T05:12:18Z</time>
            </trkpt>
            <trkpt lon="101.204735" lat="14.304887">
                <ele>27.054321</ele>
                <time>2011-07-31T05:12:27Z</time>
            </trkpt>
            <trkpt lon="101.204580" lat="14.304914">
                <ele>27.534912</ele>
                <time>2011-07-31T05:12:32Z</time>
            </trkpt>
            <trkpt lon="101.204458" lat="14.304882">
                <ele>27.534912</ele>
                <time>2011-07-31T05:12:37Z</time>
            </trkpt>
            <trkpt lon="101.204292" lat="14.304681">
                <ele>26.092896</ele>
                <time>2011-07-31T05:12:46Z</time>
            </trkpt>
            <trkpt lon="101.203422" lat="14.305217">
                <ele>26.573608</ele>
                <time>2011-07-31T05:13:18Z</time>
            </trkpt>
            <trkpt lon="101.203271" lat="14.305437">
                <ele>25.612305</ele>
                <time>2011-07-31T05:13:26Z</time>
            </trkpt>
            <trkpt lon="101.203534" lat="14.305972">
                <ele>25.612305</ele>
                <time>2011-07-31T05:13:42Z</time>
            </trkpt>
            <trkpt lon="101.203638" lat="14.306580">
                <ele>25.612305</ele>
                <time>2011-07-31T05:14:02Z</time>
            </trkpt>
            <trkpt lon="101.203565" lat="14.307633">
                <ele>26.092896</ele>
                <time>2011-07-31T05:14:35Z</time>
            </trkpt>
            <trkpt lon="101.203947" lat="14.308765">
                <ele>29.457520</ele>
                <time>2011-07-31T05:15:11Z</time>
            </trkpt>
            <trkpt lon="101.204008" lat="14.309055">
                <ele>28.496216</ele>
                <time>2011-07-31T05:15:21Z</time>
            </trkpt>
            <trkpt lon="101.203430" lat="14.309980">
                <ele>30.418823</ele>
                <time>2011-07-31T05:15:56Z</time>
            </trkpt>
            <trkpt lon="101.203490" lat="14.311187">
                <ele>32.822266</ele>
                <time>2011-07-31T05:16:34Z</time>
            </trkpt>
            <trkpt lon="101.203157" lat="14.312441">
                <ele>32.341553</ele>
                <time>2011-07-31T05:17:13Z</time>
            </trkpt>
            <trkpt lon="101.202822" lat="14.312120">
                <ele>35.225464</ele>
                <time>2011-07-31T05:17:33Z</time>
            </trkpt>
            <trkpt lon="101.202255" lat="14.311312">
                <ele>32.341553</ele>
                <time>2011-07-31T05:18:02Z</time>
            </trkpt>
            <trkpt lon="101.202146" lat="14.311394">
                <ele>32.822266</ele>
                <time>2011-07-31T05:18:08Z</time>
            </trkpt>
            <trkpt lon="101.202200" lat="14.312632">
                <ele>33.783447</ele>
                <time>2011-07-31T05:18:47Z</time>
            </trkpt>
            <trkpt lon="101.202384" lat="14.313380">
                <ele>39.070679</ele>
                <time>2011-07-31T05:19:07Z</time>
            </trkpt>
            <trkpt lon="101.202770" lat="14.315118">
                <ele>41.473999</ele>
                <time>2011-07-31T05:19:57Z</time>
            </trkpt>
            <trkpt lon="101.202166" lat="14.316124">
                <ele>42.916016</ele>
                <time>2011-07-31T05:20:30Z</time>
            </trkpt>
            <trkpt lon="101.202385" lat="14.317300">
                <ele>38.590088</ele>
                <time>2011-07-31T05:21:10Z</time>
            </trkpt>
            <trkpt lon="101.201789" lat="14.318476">
                <ele>43.877319</ele>
                <time>2011-07-31T05:21:48Z</time>
            </trkpt>
            <trkpt lon="101.202651" lat="14.320728">
                <ele>47.241821</ele>
                <time>2011-07-31T05:23:01Z</time>
            </trkpt>
            <trkpt lon="101.202467" lat="14.321839">
                <ele>48.203369</ele>
                <time>2011-07-31T05:23:35Z</time>
            </trkpt>
            <trkpt lon="101.202172" lat="14.323390">
                <ele>46.280640</ele>
                <time>2011-07-31T05:24:19Z</time>
            </trkpt>
            <trkpt lon="101.202206" lat="14.324418">
                <ele>46.280640</ele>
                <time>2011-07-31T05:24:48Z</time>
            </trkpt>
            <trkpt lon="101.202330" lat="14.324555">
                <ele>47.241821</ele>
                <time>2011-07-31T05:24:54Z</time>
            </trkpt>
            <trkpt lon="101.200466" lat="14.326801">
                <ele>56.374512</ele>
                <time>2011-07-31T05:26:01Z</time>
            </trkpt>
            <trkpt lon="101.198692" lat="14.328871">
                <ele>60.219727</ele>
                <time>2011-07-31T05:26:55Z</time>
            </trkpt>
            <trkpt lon="101.192707" lat="14.335194">
                <ele>54.451782</ele>
                <time>2011-07-31T05:29:21Z</time>
            </trkpt>
            <trkpt lon="101.192099" lat="14.334875">
                <ele>54.932373</ele>
                <time>2011-07-31T05:29:38Z</time>
            </trkpt>
            <trkpt lon="101.190120" lat="14.333319">
                <ele>54.932373</ele>
                <time>2011-07-31T05:30:27Z</time>
            </trkpt>
            <trkpt lon="101.188827" lat="14.332839">
                <ele>55.413086</ele>
                <time>2011-07-31T05:30:54Z</time>
            </trkpt>
            <trkpt lon="101.188128" lat="14.332521">
                <ele>54.451782</ele>
                <time>2011-07-31T05:31:22Z</time>
            </trkpt>
        </trkseg>
    </trk>
</gpx>